Time;durP1;ratioP1;P1;durP2;ratioP2;P2;SDS_P1;SDS_P2;PMS_P1;PMS_P2;Temp;Humidity;BMP_temperature;BMP_pressure;BME280_temperature;BME280_humidity;BME280_pressure;Samples;Min_cycle;Max_cycle;Signal;HPM_P1;HPM_P2
2021/10/04 00:00:01;;;;;;;14.55;13.27;;;;;;;29.93;73.62;100745.22;5042491;28;66021;-37
2021/10/04 00:02:45;;;;;;;16.17;12.68;;;;;;;30.00;73.31;100751.41;5048204;28;69493;-38
2021/10/04 00:05:15;;;;;;;15.50;13.73;;;;;;;30.00;73.07;100756.00;5047295;28;66685;-39
2021/10/04 00:07:46;;;;;;;15.73;14.52;;;;;;;29.98;73.46;100739.19;5049791;28;70186;-38
2021/10/04 00:10:18;;;;;;;21.05;16.90;;;;;;;30.00;73.07;100735.19;5049884;28;66169;-38
2021/10/04 00:12:49;;;;;;;;;;;;;;;29.75;73.62;100742.41;5049452;28;69654;-37
2021/10/04 00:15:21;;;;;;;34.05;17.67;;;;;;;29.79;73.64;100722.84;5030099;28;66570;-38
2021/10/04 00:17:52;;;;;;;25.33;16.90;;;;;;;30.03;73.23;100763.69;5047136;27;70360;-36
2021/10/04 00:20:25;;;;;;;22.63;16.73;;;;;;;30.02;73.46;100764.72;5050827;28;66257;-37
2021/10/04 00:22:56;;;;;;;;;;;;;;;29.78;74.30;100761.75;5049954;27;70515;-36
2021/10/04 00:25:27;;;;;;;25.40;18.25;;;;;;;30.02;73.51;100770.16;5047496;28;67106;-37
2021/10/04 00:27:58;;;;;;;19.95;17.95;;;;;;;30.04;73.81;100773.47;5043436;28;69958;-39
2021/10/04 00:30:30;;;;;;;27.25;19.73;;;;;;;30.08;73.70;100779.25;5043948;28;65335;-37
2021/10/04 00:33:01;;;;;;;21.60;19.17;;;;;;;30.06;73.19;100779.47;5046350;28;69138;-37
2021/10/04 00:35:32;;;;;;;22.50;18.83;;;;;;;30.07;73.03;100789.25;5045534;28;67298;-37
2021/10/04 00:38:03;;;;;;;23.05;19.90;;;;;;;30.01;73.38;100779.31;5042388;28;70184;-37
2021/10/04 00:40:38;;;;;;;22.92;20.08;;;;;;;30.02;72.81;100781.78;5040321;28;66369;-38
2021/10/04 00:43:10;;;;;;;23.15;19.50;;;;;;;30.13;73.41;100803.78;5035875;28;70270;-38
2021/10/04 00:45:45;;;;;;;25.10;20.23;;;;;;;30.10;72.92;100796.94;5044229;28;66518;-39
2021/10/04 00:48:19;;;;;;;25.48;20.25;;;;;;;30.13;73.23;100804.63;5044115;28;70801;-38
2021/10/04 00:51:01;;;;;;;22.17;19.85;;;;;;;30.08;73.08;100804.44;5026761;28;65339;-38
2021/10/04 00:53:33;;;;;;;26.30;20.63;;;;;;;30.17;72.85;100816.69;5031259;28;68652;-38
2021/10/04 00:56:10;;;;;;;21.88;19.65;;;;;;;30.12;72.64;100811.09;5027074;28;65228;-38
2021/10/04 00:59:17;;;;;;;25.25;20.75;;;;;;;30.15;72.81;100823.34;5034880;28;69972;-38
2021/10/04 01:02:01;;;;;;;22.97;20.57;;;;;;;30.12;72.46;100823.78;5048375;28;66222;-39
2021/10/04 01:04:58;;;;;;;23.90;21.42;;;;;;;30.10;72.49;100824.00;5039529;28;69287;-39
2021/10/04 01:07:55;;;;;;;26.60;22.13;;;;;;;30.17;72.55;100827.50;5046179;28;66903;-37
2021/10/04 01:10:53;;;;;;;29.10;22.50;;;;;;;30.17;73.04;100838.31;5034260;28;69398;-38
2021/10/04 01:13:41;;;;;;;24.83;21.67;;;;;;;30.16;72.47;100839.34;5052042;28;65849;-38
2021/10/04 01:16:30;;;;;;;31.33;23.23;;;;;;;30.17;72.25;100843.72;5047922;28;69579;-38
2021/10/04 01:19:31;;;;;;;24.50;21.83;;;;;;;29.79;72.75;100790.44;5052020;27;65823;-38
2021/10/04 01:22:19;;;;;;;28.50;22.52;;;;;;;30.19;72.61;100851.63;5027469;28;70025;-38
2021/10/04 01:24:56;;;;;;;24.52;21.90;;;;;;;30.19;73.38;100838.91;5029610;28;66894;-39
2021/10/04 01:27:46;;;;;;;35.35;27.08;;;;;;;30.20;73.08;100843.28;5044596;28;69616;-37
2021/10/04 01:31:10;;;;;;;36.83;28.38;;;;;;;30.16;73.01;100844.75;5057308;27;65107;-37
2021/10/04 01:34:55;;;;;;;38.88;31.25;;;;;;;30.04;73.01;100841.09;5045277;27;70255;-37
2021/10/04 01:37:37;;;;;;;35.45;28.25;;;;;;;30.05;73.01;100840.03;4940949;28;66353;-37
2021/10/04 01:40:18;;;;;;;36.47;27.20;;;;;;;30.09;72.14;100840.41;5036490;28;68872;-38
2021/10/04 01:43:12;;;;;;;30.63;25.73;;;;;;;30.08;72.70;100842.31;5051400;28;66617;-37
2021/10/04 01:46:03;;;;;;;31.27;25.58;;;;;;;30.06;72.62;100838.97;5047406;28;69455;-38
2021/10/04 01:49:01;;;;;;;31.67;25.98;;;;;;;30.11;72.74;100836.47;5032917;28;65507;-38
2021/10/04 01:51:41;;;;;;;37.53;26.08;;;;;;;30.12;73.30;100838.13;5019914;28;70447;-37
2021/10/04 01:54:56;;;;;;;31.20;23.13;;;;;;;30.04;73.45;100843.78;5040027;28;65396;-38
2021/10/04 01:57:31;;;;;;;25.85;21.90;;;;;;;30.12;73.28;100834.59;5033479;28;70280;-38
2021/10/04 02:03:34;;;;;;;33.70;20.50;;;;;;;30.15;73.43;100835.00;5030114;28;70065;-38
2021/10/04 02:06:21;;;;;;;31.98;23.00;;;;;;;30.09;73.24;100814.22;5044962;28;65393;-38
2021/10/04 02:09:02;;;;;;;25.67;20.20;;;;;;;30.09;73.53;100819.63;5048546;28;70508;-38
2021/10/04 02:11:46;;;;;;;29.85;22.23;;;;;;;30.15;73.24;100824.19;5046484;28;64896;-36
2021/10/04 02:14:20;;;;;;;34.22;24.92;;;;;;;30.04;73.11;100800.53;5045974;28;69891;-38
2021/10/04 02:17:06;;;;;;;30.10;23.90;;;;;;;30.21;73.42;100820.59;5016317;28;66518;-37
2021/10/04 02:19:38;;;;;;;24.42;21.83;;;;;;;30.20;73.61;100810.84;5034644;28;70336;-38
2021/10/04 02:22:22;;;;;;;27.25;23.33;;;;;;;30.23;73.50;100815.00;5033960;28;65269;-38
2021/10/04 02:24:57;;;;;;;31.00;24.75;;;;;;;30.25;73.79;100808.31;5029252;28;69963;-38
2021/10/04 02:27:32;;;;;;;38.92;27.33;;;;;;;30.31;73.42;100811.19;5042308;28;66539;-37
2021/10/04 02:30:17;;;;;;;41.75;30.48;;;;;;;30.26;73.14;100804.56;5041636;28;70563;-36
2021/10/04 02:32:52;;;;;;;31.80;27.60;;;;;;;30.28;73.41;100807.91;5039375;28;66733;-35
2021/10/04 02:35:28;;;;;;;36.58;27.90;;;;;;;30.34;72.82;100795.38;5048320;28;70460;-35
2021/10/04 02:38:06;;;;;;;32.47;25.98;;;;;;;30.31;73.07;100805.78;5029152;28;66888;-38
2021/10/04 02:40:41;;;;;;;33.30;27.33;;;;;;;30.17;73.34;100772.53;5054235;28;69352;-37
2021/10/04 02:43:17;;;;;;;29.90;26.67;;;;;;;30.28;72.95;100791.66;5031126;28;66400;-38
2021/10/04 02:45:54;;;;;;;31.38;26.02;;;;;;;30.32;73.14;100791.22;5048560;28;70368;-37
2021/10/04 02:48:26;;;;;;;28.13;24.98;;;;;;;30.27;73.14;100784.56;5035417;28;67264;-37
2021/10/04 02:50:57;;;;;;;33.53;27.38;;;;;;;30.36;72.93;100798.66;5046431;27;70168;-37
2021/10/04 02:53:29;;;;;;;40.42;27.52;;;;;;;30.35;73.68;100782.66;5035035;28;66559;-37
2021/10/04 02:56:00;;;;;;;32.60;28.85;;;;;;;30.31;73.29;100771.44;5047260;28;69087;-37
2021/10/04 02:58:32;;;;;;;32.78;27.63;;;;;;;30.38;73.43;100779.53;5046713;28;65457;-38
2021/10/04 03:01:03;;;;;;;;;;;;;;;30.12;73.51;100784.03;5048423;27;70009;-39
2021/10/04 03:03:35;;;;;;;28.75;25.50;;;;;;;30.36;73.21;100781.59;5050305;28;67343;-37
2021/10/04 03:06:06;;;;;;;27.20;24.30;;;;;;;30.31;72.61;100768.72;5054141;28;70318;-38
2021/10/04 03:08:37;;;;;;;30.93;25.37;;;;;;;30.39;73.12;100778.47;5044495;28;66655;-38
2021/10/04 03:11:09;;;;;;;26.93;23.20;;;;;;;30.42;72.39;100775.31;5056346;28;70730;-37
2021/10/04 03:13:41;;;;;;;32.25;24.60;;;;;;;30.43;72.03;100776.97;5052443;28;66327;-37
2021/10/04 03:16:13;;;;;;;27.42;23.17;;;;;;;30.46;72.36;100779.25;5051257;28;70445;-37
2021/10/04 03:18:47;;;;;;;29.05;23.17;;;;;;;30.44;72.64;100774.03;5049805;27;66262;-37
2021/10/04 03:21:18;;;;;;;25.33;22.63;;;;;;;30.46;72.05;100758.41;5031586;28;69650;-38
2021/10/04 03:23:50;;;;;;;22.80;20.52;;;;;;;30.53;71.68;100769.19;5048964;28;65875;-38
2021/10/04 03:26:22;;;;;;;29.27;20.77;;;;;;;30.57;71.21;100762.28;5048641;28;69402;-38
2021/10/04 03:28:53;;;;;;;20.38;18.58;;;;;;;30.55;71.17;100753.56;5045440;28;66766;-38
2021/10/04 03:31:24;;;;;;;20.30;18.50;;;;;;;30.56;71.06;100755.19;5044738;28;69932;-38
2021/10/04 03:33:56;;;;;;;20.25;18.13;;;;;;;30.47;70.72;100729.47;5056592;28;66590;-38
2021/10/04 03:36:27;;;;;;;23.13;18.67;;;;;;;30.59;70.60;100733.13;5047007;28;70047;-38
2021/10/04 03:38:58;;;;;;;20.10;18.20;;;;;;;30.65;71.07;100726.81;5049531;28;67521;-38
2021/10/04 03:41:30;;;;;;;35.80;19.98;;;;;;;30.65;70.91;100724.13;5055188;28;69063;-37
2021/10/04 03:44:01;;;;;;;21.73;19.58;;;;;;;30.64;70.84;100714.31;5053480;28;65507;-38
2021/10/04 03:46:32;;;;;;;21.52;18.80;;;;;;;30.68;70.51;100723.66;5036214;28;69779;-38
2021/10/04 03:49:04;;;;;;;21.13;18.63;;;;;;;30.71;70.09;100719.69;5035968;28;65082;-38
2021/10/04 03:51:35;;;;;;;18.08;16.17;;;;;;;30.72;69.37;100719.44;5042404;28;71008;-38
2021/10/04 03:54:06;;;;;;;17.00;15.43;;;;;;;30.73;67.70;100706.75;5053344;28;66454;-38
2021/10/04 03:56:37;;;;;;;17.23;15.68;;;;;;;30.75;67.95;100703.81;5039094;28;69924;-38
2021/10/04 03:59:09;;;;;;;17.05;15.52;;;;;;;30.72;68.36;100689.66;5053107;28;65650;-37
2021/10/04 04:01:40;;;;;;;17.07;15.37;;;;;;;30.76;68.47;100694.63;5047429;28;69681;-37
2021/10/04 04:04:12;;;;;;;16.45;14.82;;;;;;;30.76;67.98;100689.22;5051938;28;64920;-38
2021/10/04 04:06:45;;;;;;;17.60;16.00;;;;;;;30.82;68.41;100688.38;5034801;28;68645;-38
2021/10/04 04:09:32;;;;;;;16.93;15.40;;;;;;;30.75;68.13;100679.44;5052774;28;66512;-38
2021/10/04 04:12:13;;;;;;;16.63;15.38;;;;;;;30.81;67.76;100681.28;5050466;28;69943;-38
2021/10/04 04:14:44;;;;;;;15.83;14.67;;;;;;;30.82;67.46;100677.53;5046284;28;64687;-38
2021/10/04 04:17:15;;;;;;;20.77;16.90;;;;;;;30.77;66.76;100674.63;5049610;28;70751;-38
2021/10/04 04:19:46;;;;;;;19.92;18.10;;;;;;;30.85;67.72;100677.09;5045603;28;67185;-39
2021/10/04 04:22:18;;;;;;;21.52;18.13;;;;;;;30.87;67.74;100680.38;5040283;28;69906;-38
2021/10/04 04:24:48;;;;;;;20.60;17.40;;;;;;;30.89;67.42;100673.69;5039376;28;66364;-39
2021/10/04 04:27:20;;;;;;;31.80;17.93;;;;;;;30.79;67.82;100656.28;5034546;28;69862;-37
2021/10/04 04:29:52;;;;;;;18.17;16.52;;;;;;;30.89;67.96;100664.72;5044778;27;65682;-40
2021/10/04 04:32:23;;;;;;;19.75;17.80;;;;;;;30.89;68.18;100667.44;5036410;28;69846;-39
2021/10/04 04:34:55;;;;;;;19.45;16.40;;;;;;;30.89;66.62;100662.03;5049440;28;66611;-39
2021/10/04 04:37:26;;;;;;;22.63;17.60;;;;;;;30.85;66.55;100640.00;5046759;28;70718;-38
2021/10/04 04:39:58;;;;;;;20.23;18.15;;;;;;;30.88;66.58;100633.28;5048459;28;65458;-38
2021/10/04 04:42:29;;;;;;;19.77;17.43;;;;;;;30.93;66.60;100633.44;5041282;28;70586;-40
2021/10/04 04:45:00;;;;;;;19.45;17.55;;;;;;;30.73;66.63;100599.28;5050543;28;65367;-38
2021/10/04 04:47:32;;;;;;;18.88;17.13;;;;;;;30.92;67.03;100619.09;5045046;28;70352;-38
2021/10/04 04:50:06;;;;;;;21.25;17.75;;;;;;;30.84;66.74;100603.13;5051306;28;65393;-38
2021/10/04 04:52:37;;;;;;;20.77;17.20;;;;;;;30.99;66.81;100618.16;5052437;28;70186;-39
2021/10/04 04:55:09;;;;;;;19.10;17.13;;;;;;;30.98;66.68;100602.94;5050766;28;65133;-39
2021/10/04 04:57:41;;;;;;;17.98;16.38;;;;;;;30.99;66.83;100607.34;5047733;28;70187;-38
2021/10/04 05:00:15;;;;;;;17.98;16.33;;;;;;;31.01;66.31;100592.50;5042491;28;66569;-38
2021/10/04 05:02:47;;;;;;;19.45;15.85;;;;;;;30.68;65.51;100533.31;5047967;28;69446;-37
2021/10/04 05:05:20;;;;;;;17.80;15.15;;;;;;;30.85;65.74;100571.47;5047445;28;66422;-37
2021/10/04 05:07:51;;;;;;;17.70;15.98;;;;;;;31.07;65.39;100594.31;5046962;28;69207;-38
2021/10/04 05:10:22;;;;;;;18.13;16.40;;;;;;;31.07;65.64;100588.88;5047242;28;65454;-38
2021/10/04 05:12:54;;;;;;;17.13;15.40;;;;;;;31.06;65.61;100587.22;5051782;28;69960;-38
2021/10/04 05:15:26;;;;;;;17.30;16.00;;;;;;;31.07;66.44;100594.31;5041878;28;66597;-38
2021/10/04 05:17:57;;;;;;;19.42;17.67;;;;;;;31.11;66.05;100579.22;5050212;28;68991;-38
2021/10/04 05:20:30;;;;;;;19.00;17.17;;;;;;;31.19;66.84;100574.56;5047953;28;65363;-38
2021/10/04 05:23:04;;;;;;;20.02;16.40;;;;;;;31.19;67.36;100567.25;5042483;28;68972;-38
2021/10/04 05:25:35;;;;;;;21.90;16.55;;;;;;;31.19;67.17;100550.16;5051337;28;66808;-38
2021/10/04 05:28:06;;;;;;;17.35;15.75;;;;;;;31.25;67.43;100551.94;5057567;28;69665;-38
2021/10/04 05:30:37;;;;;;;15.50;14.50;;;;;;;31.22;67.73;100553.25;5057027;27;67444;-38
2021/10/04 05:33:08;;;;;;;16.45;14.70;;;;;;;31.23;67.66;100538.66;5057219;28;70524;-38
2021/10/04 05:35:40;;;;;;;16.57;15.17;;;;;;;31.24;67.25;100534.06;5052631;27;65387;-37
2021/10/04 05:38:12;;;;;;;16.38;14.95;;;;;;;31.29;67.39;100536.91;5051460;28;69838;-40
2021/10/04 05:40:43;;;;;;;16.98;15.23;;;;;;;31.30;66.95;100533.94;5045980;28;65569;-37
2021/10/04 05:43:14;;;;;;;14.32;12.95;;;;;;;31.22;67.31;100520.72;5048570;28;71090;-37
2021/10/04 05:45:45;;;;;;;15.38;14.07;;;;;;;31.31;67.46;100523.91;5053622;28;66145;-37
2021/10/04 05:48:16;;;;;;;15.43;14.20;;;;;;;31.30;67.27;100522.28;5049239;28;70122;-37
2021/10/04 05:50:49;;;;;;;15.00;14.02;;;;;;;31.32;66.83;100520.19;5051726;28;67661;-37
2021/10/04 05:53:22;;;;;;;14.90;13.57;;;;;;;31.34;67.38;100518.03;5025760;28;69974;-37
2021/10/04 05:55:53;;;;;;;16.00;14.68;;;;;;;31.34;67.43;100508.03;5057719;28;65849;-37
2021/10/04 05:58:24;;;;;;;15.38;13.98;;;;;;;31.37;67.27;100507.59;5047405;28;69112;-38
2021/10/04 06:00:56;;;;;;;;;;;;;;;31.11;67.84;100497.94;5053729;28;66196;-39
2021/10/04 06:03:27;;;;;;;15.35;14.20;;;;;;;31.34;67.52;100485.50;5053242;28;70718;-37
2021/10/04 06:05:58;;;;;;;15.57;14.32;;;;;;;31.35;66.89;100470.94;5052679;28;64467;-38
2021/10/04 06:08:29;;;;;;;15.40;14.03;;;;;;;31.40;67.25;100468.38;5049532;27;70956;-37
2021/10/04 06:11:03;;;;;;;15.77;14.20;;;;;;;31.25;67.00;100444.38;5050304;28;66199;-38
2021/10/04 06:13:34;;;;;;;15.30;14.10;;;;;;;31.41;67.35;100455.66;5050827;28;70704;-38
2021/10/04 06:16:09;;;;;;;16.77;15.45;;;;;;;31.43;67.44;100462.47;5038520;28;65343;-38
2021/10/04 06:18:42;;;;;;;15.60;14.30;;;;;;;31.41;66.82;100448.34;5043042;28;70228;-38
2021/10/04 06:21:17;;;;;;;16.85;15.18;;;;;;;31.46;66.84;100456.59;5063586;27;66213;-37
2021/10/04 06:23:52;;;;;;;16.40;14.77;;;;;;;31.46;67.26;100456.59;5038768;28;70766;-38
2021/10/04 06:26:23;;;;;;;;;;;;;;;31.23;67.70;100456.50;5047761;28;66356;-37
2021/10/04 06:28:56;;;;;;;14.98;13.90;;;;;;;31.44;66.97;100447.84;5053789;27;69231;-39
2021/10/04 06:31:29;;;;;;;;;;;;;;;31.26;68.01;100439.78;5051088;28;64659;-37
2021/10/04 06:34:01;;;;;;;14.95;13.77;;;;;;;31.40;66.99;100419.59;5045724;28;70774;-37
2021/10/04 06:36:45;;;;;;;16.25;14.77;;;;;;;31.53;67.01;100435.59;5032313;28;64218;-39
2021/10/04 06:39:21;;;;;;;15.38;14.35;;;;;;;31.50;67.25;100419.00;5024815;28;69996;-39
2021/10/04 06:41:55;;;;;;;15.63;14.43;;;;;;;31.52;67.20;100406.03;5044363;28;66213;-35
2021/10/04 06:44:46;;;;;;;15.48;14.15;;;;;;;31.54;67.26;100404.75;5035368;28;69517;-39
2021/10/04 06:47:25;;;;;;;15.73;14.43;;;;;;;31.23;66.58;100353.53;5040653;28;65176;-39
2021/10/04 06:49:58;;;;;;;16.65;15.13;;;;;;;31.54;66.79;100398.50;5044483;28;69403;-37
2021/10/04 06:52:43;;;;;;;15.80;14.63;;;;;;;31.59;66.75;100388.59;5041574;28;66078;-38
2021/10/04 06:55:25;;;;;;;16.30;15.02;;;;;;;31.60;66.75;100384.81;5046443;27;69841;-38
2021/10/04 06:58:04;;;;;;;16.17;14.75;;;;;;;31.63;67.05;100379.97;5054492;27;64879;-38
2021/10/04 07:00:58;;;;;;;17.83;15.32;;;;;;;31.65;66.64;100372.41;5017538;28;69211;-38
2021/10/04 07:03:37;;;;;;;17.25;15.55;;;;;;;31.68;66.90;100363.78;5044148;28;65683;-38
2021/10/04 07:06:21;;;;;;;16.42;15.30;;;;;;;31.69;66.18;100360.03;5048139;28;71014;-36
2021/10/04 07:09:37;;;;;;;17.00;15.68;;;;;;;31.59;66.77;100347.06;5046226;28;64816;-38
2021/10/04 07:12:41;;;;;;;16.20;15.02;;;;;;;31.73;66.56;100351.19;5049645;28;70359;-38
2021/10/04 07:15:20;;;;;;;16.73;15.20;;;;;;;31.72;66.40;100337.88;5052611;28;66319;-38
2021/10/04 07:17:58;;;;;;;16.25;14.98;;;;;;;31.78;66.41;100340.44;5047004;28;70362;-38
2021/10/04 07:20:47;;;;;;;17.67;16.00;;;;;;;31.79;66.06;100344.00;5044041;28;65972;-38
2021/10/04 07:23:51;;;;;;;17.17;15.60;;;;;;;31.81;66.03;100344.56;4979026;28;70347;-38
2021/10/04 07:26:37;;;;;;;15.93;14.77;;;;;;;31.87;65.98;100342.78;4986870;28;66281;-39
2021/10/04 07:29:28;;;;;;;15.50;14.43;;;;;;;31.82;66.21;100325.34;4959415;28;70087;-38
2021/10/04 07:32:20;;;;;;;15.75;14.75;;;;;;;31.91;66.07;100324.97;4944925;28;65260;-38
2021/10/04 07:35:23;;;;;;;17.90;15.93;;;;;;;31.52;65.88;100268.59;4974679;28;69959;-38
2021/10/04 07:38:22;;;;;;;16.52;15.23;;;;;;;31.89;66.12;100322.50;4990482;28;66257;-37
2021/10/04 07:41:09;;;;;;;17.30;15.77;;;;;;;31.88;65.84;100323.56;4987682;28;69398;-38
2021/10/04 07:44:09;;;;;;;16.40;14.98;;;;;;;31.77;66.21;100308.97;4986497;28;65598;-37
2021/10/04 07:47:27;;;;;;;16.37;15.10;;;;;;;31.85;65.88;100309.66;4987473;28;70254;-37
2021/10/04 07:50:14;;;;;;;17.60;15.70;;;;;;;31.92;65.88;100313.91;4968208;28;64683;-38
2021/10/04 07:53:28;;;;;;;16.02;14.57;;;;;;;31.92;65.78;100308.47;4984517;28;70933;-38
2021/10/04 07:56:57;;;;;;;16.75;15.23;;;;;;;31.92;65.44;100308.47;5034222;28;66113;-38
2021/10/04 07:59:56;;;;;;;16.38;14.73;;;;;;;31.94;64.94;100310.97;5054779;28;70134;-37
2021/10/04 08:02:44;;;;;;;16.48;14.73;;;;;;;31.93;63.70;100310.13;5063686;27;66472;-37
2021/10/04 08:05:32;;;;;;;15.90;14.30;;;;;;;31.90;63.83;100316.03;5039640;28;69789;-39
2021/10/04 08:08:19;;;;;;;17.13;15.57;;;;;;;31.86;64.00;100308.59;5023857;27;65947;-38
2021/10/04 08:11:18;;;;;;;28.98;16.05;;;;;;;31.87;64.20;100308.34;5044769;28;70244;-38
2021/10/04 08:14:04;;;;;;;17.48;15.98;;;;;;;31.88;63.72;100317.31;5035383;28;65935;-37
2021/10/04 08:16:55;;;;;;;23.73;17.95;;;;;;;31.59;63.83;100255.75;5039010;28;69927;-37
2021/10/04 08:19:47;;;;;;;17.63;15.98;;;;;;;31.93;63.98;100309.28;5043310;28;66288;-38
2021/10/04 08:22:40;;;;;;;18.55;16.83;;;;;;;31.93;64.16;100315.56;5032660;28;69736;-38
2021/10/04 08:25:16;;;;;;;18.63;16.88;;;;;;;31.97;63.13;100305.88;5009436;28;66303;-37
2021/10/04 08:27:54;;;;;;;20.52;17.13;;;;;;;32.05;63.41;100304.66;5046020;28;70119;-36
2021/10/04 08:30:52;;;;;;;19.20;17.25;;;;;;;31.99;62.80;100303.75;5016940;28;68079;-37
2021/10/04 08:33:52;;;;;;;19.45;17.70;;;;;;;32.04;62.66;100312.00;5045261;27;69628;-38
2021/10/04 08:36:35;;;;;;;19.50;17.23;;;;;;;32.05;63.42;100308.19;5037974;28;66224;-39
2021/10/04 08:39:13;;;;;;;17.92;16.15;;;;;;;32.00;63.54;100302.66;5046671;27;70145;-38
2021/10/04 08:42:04;;;;;;;22.05;17.90;;;;;;;32.08;63.23;100311.50;5033494;28;65442;-39
2021/10/04 08:44:47;;;;;;;25.33;18.08;;;;;;;32.10;62.65;100312.09;5029278;28;69932;-44
2021/10/04 08:47:38;;;;;;;22.63;17.00;;;;;;;32.09;62.31;100319.38;5043817;28;66403;-39
2021/10/04 08:50:28;;;;;;;;;;;;;;;31.80;63.69;100310.38;5045684;28;70075;-36
2021/10/04 08:53:10;;;;;;;19.65;17.58;;;;;;;32.01;63.44;100309.75;5052837;27;67471;-39
2021/10/04 08:56:17;;;;;;;19.73;16.98;;;;;;;31.67;63.92;100251.00;5038756;28;70684;-38
2021/10/04 08:58:56;;;;;;;18.20;15.68;;;;;;;32.01;65.01;100307.03;5041999;28;66208;-37
2021/10/04 09:01:30;;;;;;;29.73;17.13;;;;;;;32.09;64.78;100307.72;5042795;28;69706;-38
2021/10/04 09:04:40;;;;;;;17.00;15.32;;;;;;;32.08;65.16;100306.06;5049078;28;66659;-38
2021/10/04 09:07:20;;;;;;;27.63;15.30;;;;;;;32.13;64.95;100306.19;5053483;28;69006;-38
2021/10/04 09:10:14;;;;;;;;;;;;;;;31.88;65.36;100311.91;5037383;28;66112;-39
2021/10/04 09:12:54;;;;;;;22.77;16.95;;;;;;;31.94;64.45;100287.38;5023047;28;70364;-39
2021/10/04 09:15:51;;;;;;;18.83;16.70;;;;;;;32.10;63.82;100317.50;5038436;28;65944;-38
2021/10/04 09:18:33;;;;;;;23.23;16.98;;;;;;;32.04;64.35;100301.13;5031553;28;70238;-39
2021/10/04 09:21:09;;;;;;;20.92;18.65;;;;;;;32.11;64.35;100313.72;5023970;28;65224;-38
2021/10/04 09:23:52;;;;;;;20.60;18.52;;;;;;;32.02;64.15;100297.84;5054191;28;70663;-38
2021/10/04 09:26:31;;;;;;;22.85;18.52;;;;;;;32.10;64.53;100312.09;5053166;28;66153;-39
2021/10/04 09:29:11;;;;;;;32.78;20.98;;;;;;;31.80;64.17;100267.00;5047272;28;70040;-38
2021/10/04 09:31:49;;;;;;;23.02;20.08;;;;;;;32.10;64.85;100321.03;5047630;28;66166;-38
2021/10/04 09:34:27;;;;;;;27.50;20.77;;;;;;;32.10;64.78;100322.94;5043721;28;70431;-38
2021/10/04 09:37:00;;;;;;;25.80;20.85;;;;;;;32.11;65.15;100327.28;5046504;27;65641;-38
2021/10/04 09:39:51;;;;;;;22.27;19.65;;;;;;;32.09;65.71;100332.94;5043494;28;70158;-38
2021/10/04 09:42:27;;;;;;;22.35;20.08;;;;;;;32.04;65.55;100327.44;5045837;27;65669;-39
2021/10/04 09:45:02;;;;;;;25.02;20.58;;;;;;;32.09;65.53;100345.69;5001625;28;69581;-38
2021/10/04 09:47:42;;;;;;;27.45;20.38;;;;;;;32.09;65.64;100345.69;5039983;28;66908;-38
2021/10/04 09:50:24;;;;;;;28.02;20.92;;;;;;;31.78;66.04;100309.78;5040403;27;68680;-38
2021/10/04 09:53:13;;;;;;;25.95;19.95;;;;;;;31.75;67.12;100323.81;5043056;28;66474;-38
2021/10/04 09:55:49;;;;;;;21.85;19.50;;;;;;;32.11;66.73;100381.56;5046767;28;70244;-37
2021/10/04 09:58:46;;;;;;;28.30;21.15;;;;;;;31.98;67.24;100383.50;5038001;28;66151;-37
2021/10/04 10:01:17;;;;;;;26.70;21.67;;;;;;;32.10;66.97;100379.91;5046633;28;69559;-37
2021/10/04 10:03:48;;;;;;;24.50;20.23;;;;;;;32.07;67.13;100381.22;5045665;28;66627;-40
2021/10/04 10:06:23;;;;;;;22.25;20.00;;;;;;;32.09;67.17;100389.91;5037775;28;70051;-38
2021/10/04 10:08:58;;;;;;;25.92;20.52;;;;;;;32.07;67.25;100396.66;5053407;28;43355;-37
2021/10/04 10:11:32;;;;;;;38.30;19.73;;;;;;;32.08;68.33;100398.31;5045711;28;69519;-38
2021/10/04 10:14:03;;;;;;;25.45;19.75;;;;;;;32.19;67.82;100403.72;5048247;28;66579;-40
2021/10/04 10:16:41;;;;;;;23.70;18.40;;;;;;;32.19;68.17;100394.75;5049079;28;69991;-38
2021/10/04 10:19:15;;;;;;;26.02;18.88;;;;;;;32.32;68.01;100429.75;5057084;28;66528;-38
2021/10/04 10:21:47;;;;;;;25.58;18.95;;;;;;;32.34;67.69;100433.03;5049953;28;69985;-38
2021/10/04 10:24:30;;;;;;;27.25;19.23;;;;;;;32.07;68.32;100402.06;5049389;28;64798;-39
2021/10/04 10:27:03;;;;;;;21.38;19.27;;;;;;;32.34;67.66;100429.50;5045245;28;70337;-38
2021/10/04 10:29:35;;;;;;;21.52;18.30;;;;;;;32.40;68.09;100433.97;5061866;27;66595;-38
2021/10/04 10:32:08;;;;;;;;;;;;;;;32.15;68.93;100436.97;5032408;28;69398;-38
2021/10/04 10:34:43;;;;;;;30.00;19.02;;;;;;;32.39;68.31;100430.41;5042168;27;66339;-38
2021/10/04 10:37:26;;;;;;;26.55;18.75;;;;;;;32.37;68.34;100421.69;5039902;28;69523;-38
2021/10/04 10:40:11;;;;;;;24.08;19.35;;;;;;;32.35;68.53;100414.88;5045215;28;65563;-38
2021/10/04 10:43:09;;;;;;;29.20;19.48;;;;;;;32.34;68.89;100427.59;5029679;28;69236;-41
2021/10/04 10:45:50;;;;;;;30.50;19.73;;;;;;;32.40;68.43;100423.94;5042092;28;66423;-39
2021/10/04 10:48:40;;;;;;;26.50;19.85;;;;;;;32.34;68.40;100427.59;5045377;28;70340;-39
2021/10/04 10:51:14;;;;;;;25.23;19.20;;;;;;;32.44;68.18;100425.09;5044249;28;66957;-39
2021/10/04 10:53:46;;;;;;;24.42;20.15;;;;;;;32.45;67.98;100426.75;5042360;28;70391;-41
2021/10/04 10:56:19;;;;;;;33.08;19.52;;;;;;;32.44;68.28;100438.66;5045783;28;65939;-40
2021/10/04 10:58:53;;;;;;;25.77;20.27;;;;;;;32.38;68.68;100441.53;5038650;28;69125;-40
2021/10/04 11:01:34;;;;;;;22.05;18.23;;;;;;;32.12;68.53;100403.00;5044205;28;66434;-43
2021/10/04 11:04:08;;;;;;;28.23;18.85;;;;;;;32.43;68.76;100461.47;5041488;28;69785;-40
2021/10/04 11:06:46;;;;;;;24.95;18.73;;;;;;;32.46;68.53;100466.44;5042409;28;66453;-39
2021/10/04 11:09:18;;;;;;;25.00;18.55;;;;;;;32.45;68.87;100464.75;5056582;28;70277;-39
2021/10/04 11:11:57;;;;;;;26.73;18.95;;;;;;;32.12;68.98;100415.75;5048706;28;65498;-38
2021/10/04 11:14:29;;;;;;;23.58;18.92;;;;;;;32.34;70.04;100460.19;5046199;28;70160;-39
2021/10/04 11:17:02;;;;;;;23.60;19.10;;;;;;;32.37;70.91;100481.41;5044074;28;66080;-39
2021/10/04 11:19:35;;;;;;;21.70;18.30;;;;;;;32.18;69.93;100436.50;5039255;28;70813;-39
2021/10/04 11:22:18;;;;;;;24.80;17.35;;;;;;;32.11;69.68;100422.25;5048402;28;66248;-39
2021/10/04 11:24:59;;;;;;;24.92;17.88;;;;;;;32.33;69.81;100480.25;5037198;28;70714;-40
2021/10/04 11:27:51;;;;;;;21.27;18.73;;;;;;;32.26;70.47;100487.69;5044724;28;66352;-38
2021/10/04 11:30:22;;;;;;;28.42;18.02;;;;;;;32.21;70.60;100498.47;5044698;28;69942;-40
2021/10/04 11:33:09;;;;;;;19.05;17.13;;;;;;;32.10;71.18;100500.13;5045107;27;65527;-39
2021/10/04 11:35:57;;;;;;;18.45;16.27;;;;;;;32.05;71.19;100503.53;5044739;28;69769;-39
2021/10/04 11:38:33;;;;;;;18.40;16.60;;;;;;;32.07;71.19;100507.91;5040508;28;65787;-39
2021/10/04 11:41:06;;;;;;;22.98;17.75;;;;;;;32.00;71.30;100510.75;5024614;28;70152;-39
2021/10/04 11:43:44;;;;;;;19.08;17.23;;;;;;;31.92;72.40;100506.50;5043163;28;66424;-38
2021/10/04 11:46:23;;;;;;;18.73;16.88;;;;;;;32.03;72.68;100518.41;5036848;28;70471;-38
2021/10/04 11:49:02;;;;;;;18.83;16.95;;;;;;;32.00;72.86;100522.41;5025542;28;66446;-38
2021/10/04 11:51:39;;;;;;;18.52;16.60;;;;;;;32.04;72.98;100523.59;5044660;28;70026;-37
2021/10/04 11:54:35;;;;;;;19.92;16.52;;;;;;;32.05;73.51;100541.53;5039019;28;66618;-37
2021/10/04 11:57:20;;;;;;;26.95;20.20;;;;;;;31.74;71.93;100490.31;5033860;28;69526;-37
2021/10/04 11:59:56;;;;;;;25.02;22.35;;;;;;;31.94;71.06;100542.34;5047934;28;66640;-38
2021/10/04 12:02:45;;;;;;;36.70;24.10;;;;;;;31.59;70.81;100493.47;5042950;28;69833;-38
2021/10/04 12:05:24;;;;;;;38.30;24.98;;;;;;;31.32;70.95;100460.56;5044479;28;66114;-38
2021/10/04 12:08:08;;;;;;;33.00;23.60;;;;;;;31.26;70.29;100469.59;5050582;28;69564;-38
2021/10/04 12:10:57;;;;;;;29.83;25.35;;;;;;;31.76;70.49;100574.97;5051797;28;66580;-39